sensor_id;sensor_type;location;lat;lon;timestamp;temperature;humidity
463;DHT22;218;51.902;9.542;2023-06-22T00:02:16;23.00;1.00
463;DHT22;218;51.902;9.542;2023-06-22T00:04:45;23.00;1.00
463;DHT22;218;51.902;9.542;2023-06-22T00:07:12;23.00;1.00
463;DHT22;218;51.902;9.542;2023-06-22T00:09:38;22.90;1.00
463;DHT22;218;51.902;9.542;2023-06-22T00:12:06;22.90;1.00
463;DHT22;218;51.902;9.542;2023-06-22T00:14:33;22.90;1.00
463;DHT22;218;51.902;9.542;2023-06-22T00:17:00;22.90;1.00
463;DHT22;218;51.902;9.542;2023-06-22T00:19:27;22.90;1.00
463;DHT22;218;51.902;9.542;2023-06-22T00:21:55;22.90;1.00
463;DHT22;218;51.902;9.542;2023-06-22T00:24:25;22.80;1.00
463;DHT22;218;51.902;9.542;2023-06-22T00:26:52;22.80;1.00
463;DHT22;218;51.902;9.542;2023-06-22T00:29:19;22.80;1.00
463;DHT22;218;51.902;9.542;2023-06-22T00:31:46;22.70;1.00
463;DHT22;218;51.902;9.542;2023-06-22T00:34:13;22.70;1.00
463;DHT22;218;51.902;9.542;2023-06-22T00:36:40;22.60;1.00
463;DHT22;218;51.902;9.542;2023-06-22T00:39:08;22.60;1.00
463;DHT22;218;51.902;9.542;2023-06-22T00:41:35;22.60;1.00
463;DHT22;218;51.902;9.542;2023-06-22T00:44:02;22.50;1.00
463;DHT22;218;51.902;9.542;2023-06-22T00:46:29;22.50;1.00
463;DHT22;218;51.902;9.542;2023-06-22T00:48:56;22.50;1.00
463;DHT22;218;51.902;9.542;2023-06-22T00:51:23;22.40;1.00
463;DHT22;218;51.902;9.542;2023-06-22T00:53:50;22.40;1.00
463;DHT22;218;51.902;9.542;2023-06-22T00:56:20;22.40;1.00
463;DHT22;218;51.902;9.542;2023-06-22T00:58:51;22.40;1.00
463;DHT22;218;51.902;9.542;2023-06-22T01:01:19;22.40;1.00
463;DHT22;218;51.902;9.542;2023-06-22T01:03:49;22.40;1.00
463;DHT22;218;51.902;9.542;2023-06-22T01:06:28;22.50;1.00
463;DHT22;218;51.902;9.542;2023-06-22T01:09:02;22.50;1.00
463;DHT22;218;51.902;9.542;2023-06-22T01:11:37;22.50;1.00
463;DHT22;218;51.902;9.542;2023-06-22T01:14:10;22.50;1.00
463;DHT22;218;51.902;9.542;2023-06-22T01:16:41;22.50;1.00
463;DHT22;218;51.902;9.542;2023-06-22T01:19:20;22.50;1.00
463;DHT22;218;51.902;9.542;2023-06-22T01:21:55;22.50;1.00
463;DHT22;218;51.902;9.542;2023-06-22T01:24:26;22.50;1.00
463;DHT22;218;51.902;9.542;2023-06-22T01:27:03;22.50;1.00
463;DHT22;218;51.902;9.542;2023-06-22T01:29:33;22.50;1.00
463;DHT22;218;51.902;9.542;2023-06-22T01:32:03;22.50;1.00
463;DHT22;218;51.902;9.542;2023-06-22T01:34:31;22.50;1.00
463;DHT22;218;51.902;9.542;2023-06-22T01:36:59;22.50;1.00
463;DHT22;218;51.902;9.542;2023-06-22T01:39:27;22.50;1.00
463;DHT22;218;51.902;9.542;2023-06-22T01:41:56;22.50;1.00
463;DHT22;218;51.902;9.542;2023-06-22T01:44:25;22.60;1.00
463;DHT22;218;51.902;9.542;2023-06-22T01:46:53;22.60;1.00
463;DHT22;218;51.902;9.542;2023-06-22T01:49:21;22.60;1.00
463;DHT22;218;51.902;9.542;2023-06-22T01:51:49;22.60;1.00
463;DHT22;218;51.902;9.542;2023-06-22T01:54:16;22.60;1.00
463;DHT22;218;51.902;9.542;2023-06-22T01:56:43;22.60;1.00
463;DHT22;218;51.902;9.542;2023-06-22T01:59:20;22.60;1.00
463;DHT22;218;51.902;9.542;2023-06-22T02:01:58;22.60;1.00
463;DHT22;218;51.902;9.542;2023-06-22T02:04:31;22.60;1.00
463;DHT22;218;51.902;9.542;2023-06-22T02:07:00;22.60;1.00
463;DHT22;218;51.902;9.542;2023-06-22T02:09:32;22.70;1.00
463;DHT22;218;51.902;9.542;2023-06-22T02:12:02;22.60;1.00
463;DHT22;218;51.902;9.542;2023-06-22T02:14:30;22.70;1.00
463;DHT22;218;51.902;9.542;2023-06-22T02:16:59;22.70;1.00
463;DHT22;218;51.902;9.542;2023-06-22T02:19:27;22.70;1.00
463;DHT22;218;51.902;9.542;2023-06-22T02:21:56;22.70;1.00
463;DHT22;218;51.902;9.542;2023-06-22T02:24:23;22.70;1.00
463;DHT22;218;51.902;9.542;2023-06-22T02:26:50;22.70;1.00
463;DHT22;218;51.902;9.542;2023-06-22T02:29:17;22.70;1.00
463;DHT22;218;51.902;9.542;2023-06-22T02:31:44;22.70;1.00
463;DHT22;218;51.902;9.542;2023-06-22T02:34:12;22.70;1.00
463;DHT22;218;51.902;9.542;2023-06-22T02:36:43;22.70;1.00
463;DHT22;218;51.902;9.542;2023-06-22T02:39:16;22.80;1.00
463;DHT22;218;51.902;9.542;2023-06-22T02:41:43;22.80;1.00
463;DHT22;218;51.902;9.542;2023-06-22T02:44:10;22.80;1.00
463;DHT22;218;51.902;9.542;2023-06-22T02:46:37;22.80;1.00
463;DHT22;218;51.902;9.542;2023-06-22T02:49:04;22.80;1.00
463;DHT22;218;51.902;9.542;2023-06-22T02:51:33;22.80;1.00
463;DHT22;218;51.902;9.542;2023-06-22T02:54:01;22.80;1.00
463;DHT22;218;51.902;9.542;2023-06-22T02:56:28;22.80;1.00
463;DHT22;218;51.902;9.542;2023-06-22T02:58:56;22.80;1.00
463;DHT22;218;51.902;9.542;2023-06-22T03:01:26;22.80;1.00
463;DHT22;218;51.902;9.542;2023-06-22T03:03:53;22.80;1.00
463;DHT22;218;51.902;9.542;2023-06-22T03:06:23;22.80;1.00
463;DHT22;218;51.902;9.542;2023-06-22T03:08:58;22.80;1.00
463;DHT22;218;51.902;9.542;2023-06-22T03:11:25;22.80;1.00
463;DHT22;218;51.902;9.542;2023-06-22T03:13:52;22.80;1.00
463;DHT22;218;51.902;9.542;2023-06-22T03:16:19;22.90;1.00
463;DHT22;218;51.902;9.542;2023-06-22T03:18:46;22.90;1.00
463;DHT22;218;51.902;9.542;2023-06-22T03:21:13;22.90;1.00
463;DHT22;218;51.902;9.542;2023-06-22T03:23:41;22.90;1.00
463;DHT22;218;51.902;9.542;2023-06-22T03:26:09;22.90;1.00
463;DHT22;218;51.902;9.542;2023-06-22T03:28:37;22.90;1.00
463;DHT22;218;51.902;9.542;2023-06-22T03:31:04;22.90;1.00
463;DHT22;218;51.902;9.542;2023-06-22T03:33:32;22.90;1.00
463;DHT22;218;51.902;9.542;2023-06-22T03:35:59;22.90;1.00
463;DHT22;218;51.902;9.542;2023-06-22T03:38:26;22.90;1.00
463;DHT22;218;51.902;9.542;2023-06-22T03:40:53;22.90;1.00
463;DHT22;218;51.902;9.542;2023-06-22T03:43:21;22.90;1.00
463;DHT22;218;51.902;9.542;2023-06-22T03:45:48;22.90;1.00
463;DHT22;218;51.902;9.542;2023-06-22T03:48:15;23.00;1.00
463;DHT22;218;51.902;9.542;2023-06-22T03:50:43;23.00;1.00
463;DHT22;218;51.902;9.542;2023-06-22T03:53:10;23.00;1.00
463;DHT22;218;51.902;9.542;2023-06-22T03:55:40;23.00;1.00
463;DHT22;218;51.902;9.542;2023-06-22T03:58:06;23.00;1.00
463;DHT22;218;51.902;9.542;2023-06-22T04:00:36;23.00;1.00
463;DHT22;218;51.902;9.542;2023-06-22T04:03:03;23.00;1.00
463;DHT22;218;51.902;9.542;2023-06-22T04:05:30;23.00;1.00
463;DHT22;218;51.902;9.542;2023-06-22T04:07:56;23.00;1.00
463;DHT22;218;51.902;9.542;2023-06-22T04:10:23;23.00;1.00
463;DHT22;218;51.902;9.542;2023-06-22T04:12:50;23.00;1.00
463;DHT22;218;51.902;9.542;2023-06-22T04:15:17;23.00;1.00
463;DHT22;218;51.902;9.542;2023-06-22T04:17:46;23.10;1.00
463;DHT22;218;51.902;9.542;2023-06-22T04:20:12;23.10;1.00
463;DHT22;218;51.902;9.542;2023-06-22T04:22:39;23.10;1.00
463;DHT22;218;51.902;9.542;2023-06-22T04:25:07;23.10;1.00
463;DHT22;218;51.902;9.542;2023-06-22T04:27:34;23.20;1.00
463;DHT22;218;51.902;9.542;2023-06-22T04:30:03;23.20;1.00
463;DHT22;218;51.902;9.542;2023-06-22T04:32:30;23.20;1.00
463;DHT22;218;51.902;9.542;2023-06-22T04:34:58;23.30;1.00
463;DHT22;218;51.902;9.542;2023-06-22T04:37:25;23.30;1.00
463;DHT22;218;51.902;9.542;2023-06-22T04:39:52;23.30;1.00
463;DHT22;218;51.902;9.542;2023-06-22T04:42:20;23.30;1.00
463;DHT22;218;51.902;9.542;2023-06-22T04:44:46;23.30;1.00
463;DHT22;218;51.902;9.542;2023-06-22T04:47:13;23.30;1.00
463;DHT22;218;51.902;9.542;2023-06-22T04:49:40;23.40;1.00
463;DHT22;218;51.902;9.542;2023-06-22T04:52:11;23.40;1.00
463;DHT22;218;51.902;9.542;2023-06-22T04:54:40;23.40;1.00
463;DHT22;218;51.902;9.542;2023-06-22T04:57:14;23.40;1.00
463;DHT22;218;51.902;9.542;2023-06-22T04:59:41;23.40;1.00
463;DHT22;218;51.902;9.542;2023-06-22T05:02:08;23.50;1.00
463;DHT22;218;51.902;9.542;2023-06-22T05:04:35;23.50;1.00
463;DHT22;218;51.902;9.542;2023-06-22T05:07:04;23.50;1.00
463;DHT22;218;51.902;9.542;2023-06-22T05:09:32;23.50;1.00
463;DHT22;218;51.902;9.542;2023-06-22T05:12:00;23.60;1.00
463;DHT22;218;51.902;9.542;2023-06-22T05:14:28;23.60;1.00
463;DHT22;218;51.902;9.542;2023-06-22T05:16:55;23.60;1.00
463;DHT22;218;51.902;9.542;2023-06-22T05:19:24;23.60;1.00
463;DHT22;218;51.902;9.542;2023-06-22T05:21:51;23.60;1.00
463;DHT22;218;51.902;9.542;2023-06-22T05:24:18;23.70;1.00
463;DHT22;218;51.902;9.542;2023-06-22T05:26:46;23.70;1.00
463;DHT22;218;51.902;9.542;2023-06-22T05:29:13;23.70;1.00
463;DHT22;218;51.902;9.542;2023-06-22T05:31:40;23.80;1.00
463;DHT22;218;51.902;9.542;2023-06-22T05:34:07;23.80;1.00
463;DHT22;218;51.902;9.542;2023-06-22T05:36:34;23.90;1.00
463;DHT22;218;51.902;9.542;2023-06-22T05:39:11;23.80;1.00
463;DHT22;218;51.902;9.542;2023-06-22T05:41:39;23.90;1.00
463;DHT22;218;51.902;9.542;2023-06-22T05:44:07;23.90;1.00
463;DHT22;218;51.902;9.542;2023-06-22T05:46:34;23.90;1.00
463;DHT22;218;51.902;9.542;2023-06-22T05:49:01;24.00;1.00
463;DHT22;218;51.902;9.542;2023-06-22T05:51:28;24.00;1.00
463;DHT22;218;51.902;9.542;2023-06-22T05:53:54;24.00;1.00
463;DHT22;218;51.902;9.542;2023-06-22T05:56:21;24.00;1.00
463;DHT22;218;51.902;9.542;2023-06-22T05:58:48;24.00;1.00
463;DHT22;218;51.902;9.542;2023-06-22T06:01:16;24.10;1.00
463;DHT22;218;51.902;9.542;2023-06-22T06:03:43;24.10;1.00
463;DHT22;218;51.902;9.542;2023-06-22T06:06:10;24.10;1.00
463;DHT22;218;51.902;9.542;2023-06-22T06:08:37;24.10;1.00
463;DHT22;218;51.902;9.542;2023-06-22T06:11:04;24.20;1.00
463;DHT22;218;51.902;9.542;2023-06-22T06:13:31;24.20;1.00
463;DHT22;218;51.902;9.542;2023-06-22T06:15:58;24.20;1.00
463;DHT22;218;51.902;9.542;2023-06-22T06:18:27;24.20;1.00
463;DHT22;218;51.902;9.542;2023-06-22T06:20:54;24.30;1.00
463;DHT22;218;51.902;9.542;2023-06-22T06:23:21;24.30;1.00
463;DHT22;218;51.902;9.542;2023-06-22T06:25:48;24.30;1.00
463;DHT22;218;51.902;9.542;2023-06-22T06:28:15;24.40;1.00
463;DHT22;218;51.902;9.542;2023-06-22T06:30:42;24.40;1.00
463;DHT22;218;51.902;9.542;2023-06-22T06:33:09;24.50;1.00
463;DHT22;218;51.902;9.542;2023-06-22T06:35:37;24.50;1.00
463;DHT22;218;51.902;9.542;2023-06-22T06:38:04;24.50;1.00
463;DHT22;218;51.902;9.542;2023-06-22T06:40:31;24.60;1.00
463;DHT22;218;51.902;9.542;2023-06-22T06:42:58;24.70;1.00
463;DHT22;218;51.902;9.542;2023-06-22T06:45:25;24.70;1.00
463;DHT22;218;51.902;9.542;2023-06-22T06:47:54;24.70;1.00
463;DHT22;218;51.902;9.542;2023-06-22T06:50:21;24.80;1.00
463;DHT22;218;51.902;9.542;2023-06-22T06:52:49;24.80;1.00
463;DHT22;218;51.902;9.542;2023-06-22T06:55:17;24.90;1.00
463;DHT22;218;51.902;9.542;2023-06-22T06:57:44;24.90;1.00
463;DHT22;218;51.902;9.542;2023-06-22T07:00:15;25.00;1.00
463;DHT22;218;51.902;9.542;2023-06-22T07:02:44;25.00;1.00
463;DHT22;218;51.902;9.542;2023-06-22T07:05:12;25.10;1.00
463;DHT22;218;51.902;9.542;2023-06-22T07:07:39;25.10;1.00
463;DHT22;218;51.902;9.542;2023-06-22T07:10:09;25.10;1.00
463;DHT22;218;51.902;9.542;2023-06-22T07:12:36;25.20;1.00
463;DHT22;218;51.902;9.542;2023-06-22T07:15:03;25.30;1.00
463;DHT22;218;51.902;9.542;2023-06-22T07:17:31;25.30;1.00
463;DHT22;218;51.902;9.542;2023-06-22T07:19:58;25.40;1.00
463;DHT22;218;51.902;9.542;2023-06-22T07:22:25;25.40;1.00
463;DHT22;218;51.902;9.542;2023-06-22T07:24:52;25.50;1.00
463;DHT22;218;51.902;9.542;2023-06-22T07:27:20;25.50;1.00
463;DHT22;218;51.902;9.542;2023-06-22T07:29:47;25.50;1.00
463;DHT22;218;51.902;9.542;2023-06-22T07:32:14;25.60;1.00
463;DHT22;218;51.902;9.542;2023-06-22T07:34:41;25.70;1.00
463;DHT22;218;51.902;9.542;2023-06-22T07:37:08;25.60;1.00
463;DHT22;218;51.902;9.542;2023-06-22T07:39:35;25.70;1.00
463;DHT22;218;51.902;9.542;2023-06-22T07:42:03;25.70;1.00
463;DHT22;218;51.902;9.542;2023-06-22T07:44:32;25.70;1.00
463;DHT22;218;51.902;9.542;2023-06-22T07:46:58;25.80;1.00
463;DHT22;218;51.902;9.542;2023-06-22T07:49:25;25.80;1.00
463;DHT22;218;51.902;9.542;2023-06-22T07:51:52;25.90;1.00
463;DHT22;218;51.902;9.542;2023-06-22T07:54:19;25.90;1.00
463;DHT22;218;51.902;9.542;2023-06-22T07:56:46;26.00;1.00
463;DHT22;218;51.902;9.542;2023-06-22T07:59:13;26.00;1.00
463;DHT22;218;51.902;9.542;2023-06-22T08:01:42;26.00;1.00
463;DHT22;218;51.902;9.542;2023-06-22T08:04:09;26.00;1.00
463;DHT22;218;51.902;9.542;2023-06-22T08:06:36;26.10;1.00
463;DHT22;218;51.902;9.542;2023-06-22T08:09:03;26.10;1.00
463;DHT22;218;51.902;9.542;2023-06-22T08:11:30;26.10;1.00
463;DHT22;218;51.902;9.542;2023-06-22T08:13:56;26.20;1.00
463;DHT22;218;51.902;9.542;2023-06-22T08:16:24;26.20;1.00
463;DHT22;218;51.902;9.542;2023-06-22T08:18:52;26.30;1.00
463;DHT22;218;51.902;9.542;2023-06-22T08:21:20;26.30;1.00
463;DHT22;218;51.902;9.542;2023-06-22T08:23:47;26.30;1.00
463;DHT22;218;51.902;9.542;2023-06-22T08:26:15;26.30;1.00
463;DHT22;218;51.902;9.542;2023-06-22T08:28:42;26.40;1.00
463;DHT22;218;51.902;9.542;2023-06-22T08:31:08;26.40;1.00
463;DHT22;218;51.902;9.542;2023-06-22T08:33:39;26.40;1.00
463;DHT22;218;51.902;9.542;2023-06-22T08:36:07;26.40;1.00
463;DHT22;218;51.902;9.542;2023-06-22T08:38:36;26.50;1.00
463;DHT22;218;51.902;9.542;2023-06-22T08:41:03;26.50;1.00
463;DHT22;218;51.902;9.542;2023-06-22T08:43:30;26.50;1.00
463;DHT22;218;51.902;9.542;2023-06-22T08:45:57;26.60;1.00
463;DHT22;218;51.902;9.542;2023-06-22T08:48:24;26.60;1.00
463;DHT22;218;51.902;9.542;2023-06-22T08:50:51;26.60;1.00
463;DHT22;218;51.902;9.542;2023-06-22T08:53:19;26.70;1.00
463;DHT22;218;51.902;9.542;2023-06-22T08:55:46;26.70;1.00
463;DHT22;218;51.902;9.542;2023-06-22T08:58:13;26.70;1.00
463;DHT22;218;51.902;9.542;2023-06-22T09:00:40;26.80;1.00
463;DHT22;218;51.902;9.542;2023-06-22T09:03:07;26.80;1.00
463;DHT22;218;51.902;9.542;2023-06-22T09:05:33;26.90;1.00
463;DHT22;218;51.902;9.542;2023-06-22T09:08:00;26.90;1.00
463;DHT22;218;51.902;9.542;2023-06-22T09:10:29;27.00;1.00
463;DHT22;218;51.902;9.542;2023-06-22T09:12:56;27.00;1.00
463;DHT22;218;51.902;9.542;2023-06-22T09:15:23;27.10;1.00
463;DHT22;218;51.902;9.542;2023-06-22T09:17:50;27.10;1.00
463;DHT22;218;51.902;9.542;2023-06-22T09:20:19;27.20;1.00
463;DHT22;218;51.902;9.542;2023-06-22T09:22:46;27.20;1.00
463;DHT22;218;51.902;9.542;2023-06-22T09:25:13;27.20;1.00
463;DHT22;218;51.902;9.542;2023-06-22T09:27:42;27.30;1.00
463;DHT22;218;51.902;9.542;2023-06-22T09:30:09;27.40;1.00
463;DHT22;218;51.902;9.542;2023-06-22T09:32:36;27.50;1.00
463;DHT22;218;51.902;9.542;2023-06-22T09:35:05;27.60;1.00
463;DHT22;218;51.902;9.542;2023-06-22T09:37:33;27.70;1.00
463;DHT22;218;51.902;9.542;2023-06-22T09:40:00;27.80;1.00
463;DHT22;218;51.902;9.542;2023-06-22T09:42:31;27.90;1.00
463;DHT22;218;51.902;9.542;2023-06-22T09:44:59;28.10;1.00
463;DHT22;218;51.902;9.542;2023-06-22T09:47:27;28.20;1.00
463;DHT22;218;51.902;9.542;2023-06-22T09:49:54;28.40;1.00
463;DHT22;218;51.902;9.542;2023-06-22T09:52:21;28.50;1.00
463;DHT22;218;51.902;9.542;2023-06-22T09:54:48;28.70;1.00
463;DHT22;218;51.902;9.542;2023-06-22T09:57:15;28.90;1.00
463;DHT22;218;51.902;9.542;2023-06-22T09:59:42;29.00;1.00
463;DHT22;218;51.902;9.542;2023-06-22T10:02:10;30.50;1.00
463;DHT22;218;51.902;9.542;2023-06-22T10:04:37;36.10;1.00
463;DHT22;218;51.902;9.542;2023-06-22T10:07:05;41.80;1.00
463;DHT22;218;51.902;9.542;2023-06-22T10:09:32;43.00;1.00
463;DHT22;218;51.902;9.542;2023-06-22T10:11:59;42.30;1.00
463;DHT22;218;51.902;9.542;2023-06-22T10:14:26;41.00;1.00
463;DHT22;218;51.902;9.542;2023-06-22T10:16:55;39.80;1.00
463;DHT22;218;51.902;9.542;2023-06-22T10:19:23;38.70;1.00
463;DHT22;218;51.902;9.542;2023-06-22T10:21:50;37.70;1.00
463;DHT22;218;51.902;9.542;2023-06-22T10:24:17;36.90;1.00
463;DHT22;218;51.902;9.542;2023-06-22T10:26:44;36.20;1.00
463;DHT22;218;51.902;9.542;2023-06-22T10:29:11;35.60;1.00
463;DHT22;218;51.902;9.542;2023-06-22T10:31:38;35.20;1.00
463;DHT22;218;51.902;9.542;2023-06-22T10:34:05;34.80;1.00
463;DHT22;218;51.902;9.542;2023-06-22T10:36:33;34.50;1.00
463;DHT22;218;51.902;9.542;2023-06-22T10:39:00;34.30;1.00
463;DHT22;218;51.902;9.542;2023-06-22T10:41:28;34.00;1.00
463;DHT22;218;51.902;9.542;2023-06-22T10:43:56;33.80;1.00
463;DHT22;218;51.902;9.542;2023-06-22T10:46:24;33.70;1.00
463;DHT22;218;51.902;9.542;2023-06-22T10:48:51;33.60;1.00
463;DHT22;218;51.902;9.542;2023-06-22T10:51:20;33.50;1.00
463;DHT22;218;51.902;9.542;2023-06-22T10:53:48;33.50;1.00
463;DHT22;218;51.902;9.542;2023-06-22T10:56:16;33.50;1.00
463;DHT22;218;51.902;9.542;2023-06-22T10:58:44;33.50;1.00
463;DHT22;218;51.902;9.542;2023-06-22T11:01:11;33.50;1.00
463;DHT22;218;51.902;9.542;2023-06-22T11:03:38;33.50;1.00
463;DHT22;218;51.902;9.542;2023-06-22T11:06:05;33.50;1.00
463;DHT22;218;51.902;9.542;2023-06-22T11:08:32;33.50;1.00
463;DHT22;218;51.902;9.542;2023-06-22T11:11:00;33.60;1.00
463;DHT22;218;51.902;9.542;2023-06-22T11:13:27;33.60;1.00
463;DHT22;218;51.902;9.542;2023-06-22T11:15:54;33.60;1.00
463;DHT22;218;51.902;9.542;2023-06-22T11:18:21;33.60;1.00
463;DHT22;218;51.902;9.542;2023-06-22T11:20:48;33.70;1.00
463;DHT22;218;51.902;9.542;2023-06-22T11:23:15;33.70;1.00
463;DHT22;218;51.902;9.542;2023-06-22T11:25:42;33.80;1.00
463;DHT22;218;51.902;9.542;2023-06-22T11:28:10;33.80;1.00
463;DHT22;218;51.902;9.542;2023-06-22T11:30:37;33.90;1.00
463;DHT22;218;51.902;9.542;2023-06-22T11:33:04;33.90;1.00
463;DHT22;218;51.902;9.542;2023-06-22T11:35:31;34.00;1.00
463;DHT22;218;51.902;9.542;2023-06-22T11:37:58;34.00;1.00
463;DHT22;218;51.902;9.542;2023-06-22T11:40:24;34.10;1.00
463;DHT22;218;51.902;9.542;2023-06-22T11:42:51;34.10;1.00
463;DHT22;218;51.902;9.542;2023-06-22T11:45:20;34.20;1.00
463;DHT22;218;51.902;9.542;2023-06-22T11:47:46;34.20;1.00
463;DHT22;218;51.902;9.542;2023-06-22T11:50:14;34.30;1.00
463;DHT22;218;51.902;9.542;2023-06-22T11:52:41;34.30;1.00
463;DHT22;218;51.902;9.542;2023-06-22T11:55:08;34.30;1.00
463;DHT22;218;51.902;9.542;2023-06-22T11:57:36;34.20;1.00
463;DHT22;218;51.902;9.542;2023-06-22T12:00:04;34.20;1.00
463;DHT22;218;51.902;9.542;2023-06-22T12:02:44;34.20;1.00
463;DHT22;218;51.902;9.542;2023-06-22T12:05:11;34.20;1.00
463;DHT22;218;51.902;9.542;2023-06-22T12:07:39;34.30;1.00
463;DHT22;218;51.902;9.542;2023-06-22T12:10:06;34.30;1.00
463;DHT22;218;51.902;9.542;2023-06-22T12:12:33;34.40;1.00
463;DHT22;218;51.902;9.542;2023-06-22T12:15:00;34.40;1.00
463;DHT22;218;51.902;9.542;2023-06-22T12:17:29;34.50;1.00
463;DHT22;218;51.902;9.542;2023-06-22T12:19:58;34.50;1.00
463;DHT22;218;51.902;9.542;2023-06-22T12:22:25;34.50;1.00
463;DHT22;218;51.902;9.542;2023-06-22T12:24:52;34.70;1.00
463;DHT22;218;51.902;9.542;2023-06-22T12:27:18;34.70;1.00
463;DHT22;218;51.902;9.542;2023-06-22T12:29:45;34.70;1.00
463;DHT22;218;51.902;9.542;2023-06-22T12:32:13;34.80;1.00
463;DHT22;218;51.902;9.542;2023-06-22T12:34:41;34.80;1.00
463;DHT22;218;51.902;9.542;2023-06-22T12:37:09;34.80;1.00
463;DHT22;218;51.902;9.542;2023-06-22T12:39:36;34.70;1.00
463;DHT22;218;51.902;9.542;2023-06-22T12:42:03;34.70;1.00
463;DHT22;218;51.902;9.542;2023-06-22T12:44:32;34.70;1.00
463;DHT22;218;51.902;9.542;2023-06-22T12:46:59;34.60;1.00
463;DHT22;218;51.902;9.542;2023-06-22T12:49:26;34.50;1.00
463;DHT22;218;51.902;9.542;2023-06-22T12:51:53;34.40;1.00
463;DHT22;218;51.902;9.542;2023-06-22T12:54:21;34.30;1.00
463;DHT22;218;51.902;9.542;2023-06-22T12:56:50;34.20;1.00
463;DHT22;218;51.902;9.542;2023-06-22T12:59:17;34.10;1.00
463;DHT22;218;51.902;9.542;2023-06-22T13:01:44;34.00;1.00
463;DHT22;218;51.902;9.542;2023-06-22T13:04:11;33.90;1.00
463;DHT22;218;51.902;9.542;2023-06-22T13:06:40;33.80;1.00
463;DHT22;218;51.902;9.542;2023-06-22T13:09:07;33.70;1.00
463;DHT22;218;51.902;9.542;2023-06-22T13:11:35;33.60;1.00
463;DHT22;218;51.902;9.542;2023-06-22T13:14:02;33.50;1.00
463;DHT22;218;51.902;9.542;2023-06-22T13:16:29;33.40;1.00
463;DHT22;218;51.902;9.542;2023-06-22T13:18:56;33.40;1.00
463;DHT22;218;51.902;9.542;2023-06-22T13:21:23;33.30;1.00
463;DHT22;218;51.902;9.542;2023-06-22T13:23:50;33.20;1.00
463;DHT22;218;51.902;9.542;2023-06-22T13:26:16;33.10;1.00
463;DHT22;218;51.902;9.542;2023-06-22T13:28:45;33.00;1.00
463;DHT22;218;51.902;9.542;2023-06-22T13:31:12;32.90;1.00
463;DHT22;218;51.902;9.542;2023-06-22T13:33:39;32.90;1.00
463;DHT22;218;51.902;9.542;2023-06-22T13:36:06;32.90;1.00
463;DHT22;218;51.902;9.542;2023-06-22T13:38:35;32.80;1.00
463;DHT22;218;51.902;9.542;2023-06-22T13:41:04;32.70;1.00
463;DHT22;218;51.902;9.542;2023-06-22T13:43:31;32.70;1.00
463;DHT22;218;51.902;9.542;2023-06-22T13:45:59;32.60;1.00
463;DHT22;218;51.902;9.542;2023-06-22T13:48:26;32.50;1.00
463;DHT22;218;51.902;9.542;2023-06-22T13:50:54;32.50;1.00
463;DHT22;218;51.902;9.542;2023-06-22T13:53:21;32.50;1.00
463;DHT22;218;51.902;9.542;2023-06-22T13:55:48;32.40;1.00
463;DHT22;218;51.902;9.542;2023-06-22T13:58:14;32.40;1.00
463;DHT22;218;51.902;9.542;2023-06-22T14:00:41;32.40;1.00
463;DHT22;218;51.902;9.542;2023-06-22T14:03:10;32.40;1.00
463;DHT22;218;51.902;9.542;2023-06-22T14:05:36;32.40;1.00
463;DHT22;218;51.902;9.542;2023-06-22T14:08:03;32.40;1.00
463;DHT22;218;51.902;9.542;2023-06-22T14:10:30;32.40;1.00
463;DHT22;218;51.902;9.542;2023-06-22T14:12:57;32.40;1.00
463;DHT22;218;51.902;9.542;2023-06-22T14:15:25;32.30;1.00
463;DHT22;218;51.902;9.542;2023-06-22T14:17:52;32.30;1.00
463;DHT22;218;51.902;9.542;2023-06-22T14:20:20;32.30;1.00
463;DHT22;218;51.902;9.542;2023-06-22T14:22:47;32.20;1.00
463;DHT22;218;51.902;9.542;2023-06-22T14:25:14;32.20;1.00
463;DHT22;218;51.902;9.542;2023-06-22T14:27:41;32.20;1.00
463;DHT22;218;51.902;9.542;2023-06-22T14:30:10;32.10;1.00
463;DHT22;218;51.902;9.542;2023-06-22T14:32:37;32.10;1.00
463;DHT22;218;51.902;9.542;2023-06-22T14:35:04;32.00;1.00
463;DHT22;218;51.902;9.542;2023-06-22T14:37:32;32.00;1.00
463;DHT22;218;51.902;9.542;2023-06-22T14:39:59;32.00;1.00
463;DHT22;218;51.902;9.542;2023-06-22T14:42:26;31.90;1.00
463;DHT22;218;51.902;9.542;2023-06-22T14:44:55;31.80;1.00
463;DHT22;218;51.902;9.542;2023-06-22T14:47:22;31.80;1.00
463;DHT22;218;51.902;9.542;2023-06-22T14:49:49;31.70;1.00
463;DHT22;218;51.902;9.542;2023-06-22T14:52:16;31.60;1.00
463;DHT22;218;51.902;9.542;2023-06-22T14:54:44;31.50;1.00
463;DHT22;218;51.902;9.542;2023-06-22T14:57:11;31.50;1.00
463;DHT22;218;51.902;9.542;2023-06-22T14:59:38;31.50;1.00
463;DHT22;218;51.902;9.542;2023-06-22T15:02:05;31.40;1.00
463;DHT22;218;51.902;9.542;2023-06-22T15:04:32;31.30;1.00
463;DHT22;218;51.902;9.542;2023-06-22T15:07:00;31.30;1.00
463;DHT22;218;51.902;9.542;2023-06-22T15:09:27;31.20;1.00
463;DHT22;218;51.902;9.542;2023-06-22T15:11:55;31.10;1.00
463;DHT22;218;51.902;9.542;2023-06-22T15:14:23;31.00;1.00
463;DHT22;218;51.902;9.542;2023-06-22T15:16:50;31.00;1.00
463;DHT22;218;51.902;9.542;2023-06-22T15:19:17;30.90;1.00
463;DHT22;218;51.902;9.542;2023-06-22T15:21:44;30.90;1.00
463;DHT22;218;51.902;9.542;2023-06-22T15:24:11;30.80;1.00
463;DHT22;218;51.902;9.542;2023-06-22T15:26:38;30.70;1.00
463;DHT22;218;51.902;9.542;2023-06-22T15:29:06;30.60;1.00
463;DHT22;218;51.902;9.542;2023-06-22T15:31:33;30.50;1.00
463;DHT22;218;51.902;9.542;2023-06-22T15:34:00;30.40;1.00
463;DHT22;218;51.902;9.542;2023-06-22T15:36:29;30.20;1.00
463;DHT22;218;51.902;9.542;2023-06-22T15:38:55;30.10;1.00
463;DHT22;218;51.902;9.542;2023-06-22T15:41:22;30.00;1.00
463;DHT22;218;51.902;9.542;2023-06-22T15:43:49;29.90;1.00
463;DHT22;218;51.902;9.542;2023-06-22T15:46:17;29.80;1.00
463;DHT22;218;51.902;9.542;2023-06-22T15:48:44;29.60;1.00
463;DHT22;218;51.902;9.542;2023-06-22T15:51:11;29.50;1.00
463;DHT22;218;51.902;9.542;2023-06-22T15:53:39;29.40;1.00
463;DHT22;218;51.902;9.542;2023-06-22T15:56:06;29.30;1.00
463;DHT22;218;51.902;9.542;2023-06-22T15:58:35;29.20;1.00
463;DHT22;218;51.902;9.542;2023-06-22T16:01:01;29.10;1.00
463;DHT22;218;51.902;9.542;2023-06-22T16:03:30;29.00;1.00
463;DHT22;218;51.902;9.542;2023-06-22T16:05:57;28.90;1.00
463;DHT22;218;51.902;9.542;2023-06-22T16:08:23;28.80;1.00
463;DHT22;218;51.902;9.542;2023-06-22T16:10:51;28.80;1.00
463;DHT22;218;51.902;9.542;2023-06-22T16:13:18;28.70;1.00
463;DHT22;218;51.902;9.542;2023-06-22T16:15:44;28.60;1.00
463;DHT22;218;51.902;9.542;2023-06-22T16:18:11;28.50;1.00
463;DHT22;218;51.902;9.542;2023-06-22T16:20:40;28.40;1.00
463;DHT22;218;51.902;9.542;2023-06-22T16:23:06;28.40;1.00
463;DHT22;218;51.902;9.542;2023-06-22T16:25:33;28.40;1.00
463;DHT22;218;51.902;9.542;2023-06-22T16:28:00;28.30;1.00
463;DHT22;218;51.902;9.542;2023-06-22T16:30:27;28.20;1.00
463;DHT22;218;51.902;9.542;2023-06-22T16:32:56;28.20;1.00
463;DHT22;218;51.902;9.542;2023-06-22T16:35:24;28.10;1.00
463;DHT22;218;51.902;9.542;2023-06-22T16:37:54;28.10;1.00
463;DHT22;218;51.902;9.542;2023-06-22T16:40:21;28.00;1.00
463;DHT22;218;51.902;9.542;2023-06-22T16:42:49;28.00;1.00
463;DHT22;218;51.902;9.542;2023-06-22T16:45:17;27.90;1.00
463;DHT22;218;51.902;9.542;2023-06-22T16:47:47;27.90;1.00
463;DHT22;218;51.902;9.542;2023-06-22T16:50:14;27.90;1.00
463;DHT22;218;51.902;9.542;2023-06-22T16:52:41;27.80;1.00
463;DHT22;218;51.902;9.542;2023-06-22T16:55:10;27.80;1.00